sensor_id;sensor_type;location;lat;lon;timestamp;pressure;altitude;pressure_sealevel;temperature;humidity
43553;BME280;29153;42.696;23.218;2023-03-14T00:00:20;94676.45;;;-1.27;89.36
43553;BME280;29153;42.696;23.218;2023-03-14T00:02:52;94672.36;;;-1.25;89.35
43553;BME280;29153;42.696;23.218;2023-03-14T00:05:20;94665.65;;;-1.24;88.99
43553;BME280;29153;42.696;23.218;2023-03-14T00:07:47;94667.05;;;-1.28;89.25
43553;BME280;29153;42.696;23.218;2023-03-14T00:10:15;94661.84;;;-1.28;89.34
43553;BME280;29153;42.696;23.218;2023-03-14T00:12:43;94661.35;;;-1.27;89.15
43553;BME280;29153;42.696;23.218;2023-03-14T00:15:11;94653.93;;;-1.44;89.07
43553;BME280;29153;42.696;23.218;2023-03-14T00:17:40;94654.92;;;-1.45;89.52
43553;BME280;29153;42.696;23.218;2023-03-14T00:20:10;94655.35;;;-1.34;89.52
43553;BME280;29153;42.696;23.218;2023-03-14T00:22:39;94649.81;;;-1.49;89.64
43553;BME280;29153;42.696;23.218;2023-03-14T00:25:09;94646.14;;;-1.50;89.83
43553;BME280;29153;42.696;23.218;2023-03-14T00:27:37;94642.20;;;-1.57;90.26
43553;BME280;29153;42.696;23.218;2023-03-14T00:30:06;94639.80;;;-1.58;90.40
43553;BME280;29153;42.696;23.218;2023-03-14T00:32:34;94640.10;;;-1.57;90.35
43553;BME280;29153;42.696;23.218;2023-03-14T00:35:02;94638.80;;;-1.57;90.33
43553;BME280;29153;42.696;23.218;2023-03-14T00:37:30;94636.20;;;-1.64;90.54
43553;BME280;29153;42.696;23.218;2023-03-14T00:39:58;94630.80;;;-1.62;90.80
43553;BME280;29153;42.696;23.218;2023-03-14T00:42:25;94626.75;;;-1.54;90.49
43553;BME280;29153;42.696;23.218;2023-03-14T00:44:53;94627.20;;;-1.61;90.95
43553;BME280;29153;42.696;23.218;2023-03-14T00:47:21;94632.72;;;-1.54;90.62
43553;BME280;29153;42.696;23.218;2023-03-14T00:49:48;94625.81;;;-1.57;90.30
43553;BME280;29153;42.696;23.218;2023-03-14T00:52:16;94625.23;;;-1.59;90.27
43553;BME280;29153;42.696;23.218;2023-03-14T00:54:43;94616.73;;;-1.57;90.33
43553;BME280;29153;42.696;23.218;2023-03-14T00:57:11;94612.34;;;-1.57;90.22
43553;BME280;29153;42.696;23.218;2023-03-14T00:59:38;94615.13;;;-1.58;90.09
43553;BME280;29153;42.696;23.218;2023-03-14T01:02:07;94616.55;;;-1.56;89.69
43553;BME280;29153;42.696;23.218;2023-03-14T01:04:35;94613.91;;;-1.62;89.82
43553;BME280;29153;42.696;23.218;2023-03-14T01:07:04;94611.22;;;-1.65;90.25
43553;BME280;29153;42.696;23.218;2023-03-14T01:09:31;94601.86;;;-1.59;90.38
43553;BME280;29153;42.696;23.218;2023-03-14T01:11:59;94602.75;;;-1.56;90.24
43553;BME280;29153;42.696;23.218;2023-03-14T01:14:26;94602.14;;;-1.71;90.30
43553;BME280;29153;42.696;23.218;2023-03-14T01:16:54;94600.22;;;-1.73;90.41
43553;BME280;29153;42.696;23.218;2023-03-14T01:19:23;94602.50;;;-1.74;90.55
43553;BME280;29153;42.696;23.218;2023-03-14T01:21:51;94592.83;;;-1.76;90.60
43553;BME280;29153;42.696;23.218;2023-03-14T01:24:18;94588.89;;;-1.90;90.75
43553;BME280;29153;42.696;23.218;2023-03-14T01:26:46;94586.98;;;-1.92;90.97
43553;BME280;29153;42.696;23.218;2023-03-14T01:29:14;94588.59;;;-1.91;91.00
43553;BME280;29153;42.696;23.218;2023-03-14T01:31:42;94580.12;;;-1.89;90.90
43553;BME280;29153;42.696;23.218;2023-03-14T01:34:09;94577.67;;;-1.97;91.09
43553;BME280;29153;42.696;23.218;2023-03-14T01:36:37;94579.98;;;-1.98;91.32
43553;BME280;29153;42.696;23.218;2023-03-14T01:39:05;94582.55;;;-2.04;91.69
43553;BME280;29153;42.696;23.218;2023-03-14T01:41:32;94576.69;;;-1.96;91.72
43553;BME280;29153;42.696;23.218;2023-03-14T01:44:00;94465.88;;;-2.76;91.62
43553;BME280;29153;42.696;23.218;2023-03-14T01:46:38;94567.29;;;-1.97;91.83
43553;BME280;29153;42.696;23.218;2023-03-14T01:49:13;94443.92;;;-2.80;91.55
43553;BME280;29153;42.696;23.218;2023-03-14T01:51:59;94565.27;;;-2.08;91.65
43553;BME280;29153;42.696;23.218;2023-03-14T01:54:37;94571.53;;;-2.13;91.85
43553;BME280;29153;42.696;23.218;2023-03-14T01:57:27;94564.55;;;-2.19;92.00
43553;BME280;29153;42.696;23.218;2023-03-14T02:02:46;94558.55;;;-2.19;92.38
43553;BME280;29153;42.696;23.218;2023-03-14T02:05:17;94552.97;;;-2.16;92.23
43553;BME280;29153;42.696;23.218;2023-03-14T02:07:49;94557.44;;;-2.21;92.26
43553;BME280;29153;42.696;23.218;2023-03-14T02:10:19;94551.35;;;-2.24;92.38
43553;BME280;29153;42.696;23.218;2023-03-14T02:12:48;94555.42;;;-2.25;92.58
43553;BME280;29153;42.696;23.218;2023-03-14T02:15:16;94555.11;;;-2.26;92.72
43553;BME280;29153;42.696;23.218;2023-03-14T02:17:45;94553.55;;;-2.21;92.44
43553;BME280;29153;42.696;23.218;2023-03-14T02:22:55;94552.61;;;-2.31;92.82
43553;BME280;29153;42.696;23.218;2023-03-14T02:25:37;94542.37;;;-2.21;92.64
43553;BME280;29153;42.696;23.218;2023-03-14T02:28:02;94543.97;;;-2.27;92.65
43553;BME280;29153;42.696;23.218;2023-03-14T02:30:31;94553.81;;;-2.26;92.48
43553;BME280;29153;42.696;23.218;2023-03-14T02:32:59;94559.57;;;-2.38;92.54
43553;BME280;29153;42.696;23.218;2023-03-14T02:35:29;94554.61;;;-2.33;92.81
43553;BME280;29153;42.696;23.218;2023-03-14T02:41:07;94558.91;;;-2.29;92.18
43553;BME280;29153;42.696;23.218;2023-03-14T02:43:34;94561.63;;;-2.44;92.56
43553;BME280;29153;42.696;23.218;2023-03-14T02:46:05;94561.22;;;-2.47;93.09
43553;BME280;29153;42.696;23.218;2023-03-14T02:48:39;94559.25;;;-2.45;93.31
43553;BME280;29153;42.696;23.218;2023-03-14T02:51:06;94559.84;;;-2.43;93.26
43553;BME280;29153;42.696;23.218;2023-03-14T02:53:36;94557.16;;;-2.39;93.23
43553;BME280;29153;42.696;23.218;2023-03-14T02:56:06;94562.34;;;-2.39;92.93
43553;BME280;29153;42.696;23.218;2023-03-14T02:58:35;94560.94;;;-2.48;93.26
43553;BME280;29153;42.696;23.218;2023-03-14T03:01:03;94556.73;;;-2.49;93.36
43553;BME280;29153;42.696;23.218;2023-03-14T03:03:31;94554.37;;;-2.44;93.42
43553;BME280;29153;42.696;23.218;2023-03-14T03:05:58;94558.63;;;-2.47;93.41
43553;BME280;29153;42.696;23.218;2023-03-14T03:08:27;94554.96;;;-2.42;93.47
43553;BME280;29153;42.696;23.218;2023-03-14T03:10:56;94558.05;;;-2.43;93.36
43553;BME280;29153;42.696;23.218;2023-03-14T03:13:24;94564.28;;;-2.54;93.45
43553;BME280;29153;42.696;23.218;2023-03-14T03:15:52;94561.42;;;-2.49;93.66
43553;BME280;29153;42.696;23.218;2023-03-14T03:18:20;94558.63;;;-2.47;93.40
43553;BME280;29153;42.696;23.218;2023-03-14T03:20:47;94558.91;;;-2.53;93.33
43553;BME280;29153;42.696;23.218;2023-03-14T03:23:15;94560.64;;;-2.43;93.40
43553;BME280;29153;42.696;23.218;2023-03-14T03:25:49;94560.54;;;-2.45;93.13
43553;BME280;29153;42.696;23.218;2023-03-14T03:28:18;94556.83;;;-2.47;93.19
43553;BME280;29153;42.696;23.218;2023-03-14T03:30:46;94551.00;;;-2.55;93.56
43553;BME280;29153;42.696;23.218;2023-03-14T03:33:13;94548.97;;;-2.43;93.66
43553;BME280;29153;42.696;23.218;2023-03-14T03:35:46;94556.98;;;-2.38;93.20
43553;BME280;29153;42.696;23.218;2023-03-14T03:38:14;94555.75;;;-2.48;92.88
43553;BME280;29153;42.696;23.218;2023-03-14T03:40:42;94557.70;;;-2.57;93.07
43553;BME280;29153;42.696;23.218;2023-03-14T03:43:09;94559.48;;;-2.57;93.01
43553;BME280;29153;42.696;23.218;2023-03-14T03:45:37;94564.67;;;-2.57;93.09
43553;BME280;29153;42.696;23.218;2023-03-14T03:48:04;94567.11;;;-2.49;93.13
43553;BME280;29153;42.696;23.218;2023-03-14T03:50:32;94562.28;;;-2.52;92.94
43553;BME280;29153;42.696;23.218;2023-03-14T03:53:00;94558.30;;;-2.55;92.98
43553;BME280;29153;42.696;23.218;2023-03-14T03:55:27;94560.66;;;-2.60;92.88
43553;BME280;29153;42.696;23.218;2023-03-14T03:57:55;94557.06;;;-2.65;93.10
43553;BME280;29153;42.696;23.218;2023-03-14T04:00:22;94564.03;;;-2.66;93.13
43553;BME280;29153;42.696;23.218;2023-03-14T04:02:50;94560.89;;;-2.72;93.18
43553;BME280;29153;42.696;23.218;2023-03-14T04:05:18;94561.88;;;-2.73;93.42
43553;BME280;29153;42.696;23.218;2023-03-14T04:07:45;94563.64;;;-2.80;93.54
43553;BME280;29153;42.696;23.218;2023-03-14T04:10:13;94566.23;;;-2.80;93.76
43553;BME280;29153;42.696;23.218;2023-03-14T04:12:41;94563.39;;;-2.74;93.89
43553;BME280;29153;42.696;23.218;2023-03-14T04:15:08;94559.34;;;-2.84;93.85
43553;BME280;29153;42.696;23.218;2023-03-14T04:17:39;94556.54;;;-2.82;93.67
43553;BME280;29153;42.696;23.218;2023-03-14T04:20:08;94545.50;;;-2.80;93.70
43553;BME280;29153;42.696;23.218;2023-03-14T04:22:38;94545.09;;;-2.84;93.62
43553;BME280;29153;42.696;23.218;2023-03-14T04:25:07;94550.27;;;-2.84;93.64
43553;BME280;29153;42.696;23.218;2023-03-14T04:27:34;94538.61;;;-2.84;93.59
43553;BME280;29153;42.696;23.218;2023-03-14T04:30:02;94534.09;;;-2.86;93.64
43553;BME280;29153;42.696;23.218;2023-03-14T04:32:30;94533.50;;;-2.88;93.83
43553;BME280;29153;42.696;23.218;2023-03-14T04:35:00;94416.30;;;-3.58;93.60
43553;BME280;29153;42.696;23.218;2023-03-14T04:37:32;94532.70;;;-2.88;93.87
43553;BME280;29153;42.696;23.218;2023-03-14T04:40:01;94526.55;;;-2.98;93.91
43553;BME280;29153;42.696;23.218;2023-03-14T04:42:31;94517.33;;;-2.90;93.94
43553;BME280;29153;42.696;23.218;2023-03-14T04:44:59;94522.08;;;-3.00;94.05
43553;BME280;29153;42.696;23.218;2023-03-14T04:47:27;94513.73;;;-2.95;94.17
43553;BME280;29153;42.696;23.218;2023-03-14T04:49:55;94516.03;;;-2.90;94.21
43553;BME280;29153;42.696;23.218;2023-03-14T04:52:22;94517.46;;;-2.87;94.01
43553;BME280;29153;42.696;23.218;2023-03-14T04:54:50;94515.03;;;-2.95;93.97
43553;BME280;29153;42.696;23.218;2023-03-14T04:57:19;94514.73;;;-2.90;94.34
43553;BME280;29153;42.696;23.218;2023-03-14T04:59:50;94506.70;;;-2.84;94.46
43553;BME280;29153;42.696;23.218;2023-03-14T05:02:21;94507.82;;;-2.83;94.47
43553;BME280;29153;42.696;23.218;2023-03-14T05:04:51;94514.25;;;-2.89;94.56
43553;BME280;29153;42.696;23.218;2023-03-14T05:07:18;94508.17;;;-2.86;94.84
43553;BME280;29153;42.696;23.218;2023-03-14T05:09:46;94509.95;;;-2.69;95.19
43553;BME280;29153;42.696;23.218;2023-03-14T05:12:13;94509.93;;;-2.52;95.01
43553;BME280;29153;42.696;23.218;2023-03-14T05:14:41;94505.37;;;-2.43;94.46
43553;BME280;29153;42.696;23.218;2023-03-14T05:17:08;94505.41;;;-2.37;94.19
43553;BME280;29153;42.696;23.218;2023-03-14T05:19:36;94509.09;;;-2.35;94.05
43553;BME280;29153;42.696;23.218;2023-03-14T05:22:04;94510.83;;;-2.25;93.93
43553;BME280;29153;42.696;23.218;2023-03-14T05:24:32;94501.17;;;-2.14;93.71
43553;BME280;29153;42.696;23.218;2023-03-14T05:27:00;94497.00;;;-2.15;93.75
43553;BME280;29153;42.696;23.218;2023-03-14T05:29:27;94501.02;;;-1.99;94.18
43553;BME280;29153;42.696;23.218;2023-03-14T05:31:55;94494.03;;;-1.92;93.98
43553;BME280;29153;42.696;23.218;2023-03-14T05:34:23;94396.09;;;-2.40;94.20
43553;BME280;29153;42.696;23.218;2023-03-14T05:36:58;94500.88;;;-1.71;94.18
43553;BME280;29153;42.696;23.218;2023-03-14T05:39:27;94494.97;;;-1.56;94.17
43553;BME280;29153;42.696;23.218;2023-03-14T05:41:56;94496.17;;;-1.39;94.02
43553;BME280;29153;42.696;23.218;2023-03-14T05:44:23;94506.36;;;-1.31;93.59
43553;BME280;29153;42.696;23.218;2023-03-14T05:46:51;94495.53;;;-1.02;93.67
43553;BME280;29153;42.696;23.218;2023-03-14T05:49:18;94488.90;;;-0.27;94.37
43553;BME280;29153;42.696;23.218;2023-03-14T05:51:46;94495.44;;;0.76;93.22
43553;BME280;29153;42.696;23.218;2023-03-14T05:54:13;94495.28;;;1.78;89.42
43553;BME280;29153;42.696;23.218;2023-03-14T05:56:41;94503.20;;;2.31;82.99
43553;BME280;29153;42.696;23.218;2023-03-14T05:59:08;94508.33;;;2.26;78.92
43553;BME280;29153;42.696;23.218;2023-03-14T06:01:36;94503.25;;;2.22;78.73
43553;BME280;29153;42.696;23.218;2023-03-14T06:04:04;94499.91;;;2.15;78.42
43553;BME280;29153;42.696;23.218;2023-03-14T06:06:31;94500.59;;;2.01;78.34
43553;BME280;29153;42.696;23.218;2023-03-14T06:08:58;94496.11;;;1.99;78.36
43553;BME280;29153;42.696;23.218;2023-03-14T06:11:26;94495.68;;;1.93;78.60
43553;BME280;29153;42.696;23.218;2023-03-14T06:13:53;94495.42;;;1.83;78.41
43553;BME280;29153;42.696;23.218;2023-03-14T06:16:21;94491.72;;;1.72;79.10
43553;BME280;29153;42.696;23.218;2023-03-14T06:18:48;94494.78;;;1.78;79.94
43553;BME280;29153;42.696;23.218;2023-03-14T06:21:16;94499.70;;;1.68;79.61
43553;BME280;29153;42.696;23.218;2023-03-14T06:23:43;94504.47;;;1.90;78.08
43553;BME280;29153;42.696;23.218;2023-03-14T06:26:11;94511.11;;;2.13;75.69
43553;BME280;29153;42.696;23.218;2023-03-14T06:28:39;94510.22;;;2.40;75.93
43553;BME280;29153;42.696;23.218;2023-03-14T06:31:06;94515.71;;;2.50;74.76
43553;BME280;29153;42.696;23.218;2023-03-14T06:33:34;94508.83;;;2.79;74.23
43553;BME280;29153;42.696;23.218;2023-03-14T06:36:01;94513.76;;;2.87;71.95
43553;BME280;29153;42.696;23.218;2023-03-14T06:38:29;94518.91;;;2.96;70.28
43553;BME280;29153;42.696;23.218;2023-03-14T06:40:56;94510.30;;;3.07;70.80
43553;BME280;29153;42.696;23.218;2023-03-14T06:43:25;94512.52;;;3.24;69.99
43553;BME280;29153;42.696;23.218;2023-03-14T06:45:52;94507.84;;;3.26;68.00
43553;BME280;29153;42.696;23.218;2023-03-14T06:48:20;94515.82;;;3.08;67.29
43553;BME280;29153;42.696;23.218;2023-03-14T06:50:49;94501.09;;;3.16;67.62
43553;BME280;29153;42.696;23.218;2023-03-14T06:53:16;94493.14;;;3.48;66.92
43553;BME280;29153;42.696;23.218;2023-03-14T06:55:44;94485.88;;;3.64;67.37
43553;BME280;29153;42.696;23.218;2023-03-14T06:58:11;94490.51;;;4.00;67.47
43553;BME280;29153;42.696;23.218;2023-03-14T07:00:39;94484.38;;;4.08;65.69
43553;BME280;29153;42.696;23.218;2023-03-14T07:03:06;94484.23;;;4.43;64.70
43553;BME280;29153;42.696;23.218;2023-03-14T07:05:34;94488.89;;;4.55;63.15
43553;BME280;29153;42.696;23.218;2023-03-14T07:08:02;94485.57;;;4.77;65.23
43553;BME280;29153;42.696;23.218;2023-03-14T07:10:29;94488.36;;;5.03;61.78
43553;BME280;29153;42.696;23.218;2023-03-14T07:12:57;94488.27;;;5.15;61.27
43553;BME280;29153;42.696;23.218;2023-03-14T07:15:24;94491.25;;;5.21;60.72
43553;BME280;29153;42.696;23.218;2023-03-14T07:17:52;94496.02;;;5.43;59.05
43553;BME280;29153;42.696;23.218;2023-03-14T07:20:19;94488.30;;;5.75;58.61
43553;BME280;29153;42.696;23.218;2023-03-14T07:22:50;94485.25;;;6.03;62.42
43553;BME280;29153;42.696;23.218;2023-03-14T07:25:17;94488.52;;;6.36;57.92
43553;BME280;29153;42.696;23.218;2023-03-14T07:27:45;94486.35;;;6.58;57.91
43553;BME280;29153;42.696;23.218;2023-03-14T07:30:14;94478.39;;;6.79;55.94
43553;BME280;29153;42.696;23.218;2023-03-14T07:32:41;94456.77;;;7.12;58.88
43553;BME280;29153;42.696;23.218;2023-03-14T07:35:09;94459.59;;;7.40;57.73
43553;BME280;29153;42.696;23.218;2023-03-14T07:37:36;94452.97;;;7.87;52.94
43553;BME280;29153;42.696;23.218;2023-03-14T07:40:04;94463.38;;;8.21;53.19
43553;BME280;29153;42.696;23.218;2023-03-14T07:42:33;94451.77;;;8.27;54.38
43553;BME280;29153;42.696;23.218;2023-03-14T07:45:00;94443.41;;;8.53;49.94
43553;BME280;29153;42.696;23.218;2023-03-14T07:47:29;94443.66;;;8.49;50.03
43553;BME280;29153;42.696;23.218;2023-03-14T07:49:56;94448.97;;;8.66;50.96
43553;BME280;29153;42.696;23.218;2023-03-14T07:52:24;94447.92;;;8.88;53.56
43553;BME280;29153;42.696;23.218;2023-03-14T07:54:51;94443.95;;;9.13;48.02
43553;BME280;29153;42.696;23.218;2023-03-14T07:57:19;94444.45;;;9.25;47.52
43553;BME280;29153;42.696;23.218;2023-03-14T07:59:46;94442.05;;;9.44;51.53
43553;BME280;29153;42.696;23.218;2023-03-14T08:02:14;94435.90;;;9.69;50.98
43553;BME280;29153;42.696;23.218;2023-03-14T08:04:41;94429.72;;;9.93;47.43
43553;BME280;29153;42.696;23.218;2023-03-14T08:07:09;94426.85;;;9.87;47.44
43553;BME280;29153;42.696;23.218;2023-03-14T08:09:37;94431.38;;;9.79;47.09
43553;BME280;29153;42.696;23.218;2023-03-14T08:12:04;94426.56;;;9.89;51.16
43553;BME280;29153;42.696;23.218;2023-03-14T08:14:32;94429.20;;;9.96;46.96
43553;BME280;29153;42.696;23.218;2023-03-14T08:16:59;94426.80;;;10.00;49.74
43553;BME280;29153;42.696;23.218;2023-03-14T08:19:27;94425.70;;;10.09;50.98
43553;BME280;29153;42.696;23.218;2023-03-14T08:21:54;94422.80;;;10.02;46.29
43553;BME280;29153;42.696;23.218;2023-03-14T08:24:21;94424.14;;;9.97;48.75
43553;BME280;29153;42.696;23.218;2023-03-14T08:26:49;94427.91;;;9.86;45.91
43553;BME280;29153;42.696;23.218;2023-03-14T08:29:16;94421.08;;;9.75;46.76
43553;BME280;29153;42.696;23.218;2023-03-14T08:31:44;94419.44;;;9.84;47.31
43553;BME280;29153;42.696;23.218;2023-03-14T08:34:11;94421.27;;;9.89;46.61
43553;BME280;29153;42.696;23.218;2023-03-14T08:36:39;94412.00;;;9.96;50.80
43553;BME280;29153;42.696;23.218;2023-03-14T08:39:07;94412.23;;;9.97;48.51
43553;BME280;29153;42.696;23.218;2023-03-14T08:41:35;94402.89;;;10.20;49.81
43553;BME280;29153;42.696;23.218;2023-03-14T08:44:04;94402.91;;;10.15;51.45
43553;BME280;29153;42.696;23.218;2023-03-14T08:46:31;94396.23;;;10.30;47.95
43553;BME280;29153;42.696;23.218;2023-03-14T08:48:59;94396.64;;;10.45;47.19
43553;BME280;29153;42.696;23.218;2023-03-14T08:51:27;94385.98;;;10.53;51.03
43553;BME280;29153;42.696;23.218;2023-03-14T08:53:55;94380.49;;;10.46;45.73
43553;BME280;29153;42.696;23.218;2023-03-14T08:56:22;94375.34;;;10.24;47.01
43553;BME280;29153;42.696;23.218;2023-03-14T08:58:50;94378.70;;;10.39;45.63
43553;BME280;29153;42.696;23.218;2023-03-14T09:01:17;94376.02;;;10.42;45.76
43553;BME280;29153;42.696;23.218;2023-03-14T09:03:45;94366.46;;;9.99;46.48
43553;BME280;29153;42.696;23.218;2023-03-14T09:06:14;94358.92;;;10.27;46.65
43553;BME280;29153;42.696;23.218;2023-03-14T09:08:44;94354.19;;;10.19;44.00
43553;BME280;29153;42.696;23.218;2023-03-14T09:11:12;94352.41;;;10.04;45.54
43553;BME280;29153;42.696;23.218;2023-03-14T09:13:40;94349.27;;;10.43;47.86
43553;BME280;29153;42.696;23.218;2023-03-14T09:16:08;94347.16;;;10.40;45.88
43553;BME280;29153;42.696;23.218;2023-03-14T09:18:36;94342.56;;;10.54;46.16
43553;BME280;29153;42.696;23.218;2023-03-14T09:21:04;94335.67;;;10.55;44.39
43553;BME280;29153;42.696;23.218;2023-03-14T09:23:31;94334.65;;;10.48;44.94
43553;BME280;29153;42.696;23.218;2023-03-14T09:25:59;94325.30;;;10.25;44.34
43553;BME280;29153;42.696;23.218;2023-03-14T09:28:27;94325.64;;;10.49;43.88
43553;BME280;29153;42.696;23.218;2023-03-14T09:30:55;94310.24;;;10.54;44.43
43553;BME280;29153;42.696;23.218;2023-03-14T09:33:22;94278.45;;;10.25;40.90
43553;BME280;29153;42.696;23.218;2023-03-14T09:35:49;94310.61;;;10.42;41.07
43553;BME280;29153;42.696;23.218;2023-03-14T09:38:17;94307.48;;;10.67;42.00
43553;BME280;29153;42.696;23.218;2023-03-14T09:40:47;94306.80;;;10.56;39.58
43553;BME280;29153;42.696;23.218;2023-03-14T09:43:15;94295.95;;;10.53;45.80
43553;BME280;29153;42.696;23.218;2023-03-14T09:45:45;94288.46;;;10.91;43.93
43553;BME280;29153;42.696;23.218;2023-03-14T09:48:22;94278.81;;;11.24;43.23
43553;BME280;29153;42.696;23.218;2023-03-14T09:50:59;94281.73;;;11.25;38.75
43553;BME280;29153;42.696;23.218;2023-03-14T09:53:43;94270.97;;;11.37;42.23
43553;BME280;29153;42.696;23.218;2023-03-14T09:58:55;94273.08;;;11.59;38.05
43553;BME280;29153;42.696;23.218;2023-03-14T10:04:18;94268.66;;;11.73;40.89
43553;BME280;29153;42.696;23.218;2023-03-14T10:06:46;94256.05;;;11.63;40.49
43553;BME280;29153;42.696;23.218;2023-03-14T10:09:20;94247.09;;;11.80;40.47
43553;BME280;29153;42.696;23.218;2023-03-14T10:11:49;94235.16;;;11.96;42.31
43553;BME280;29153;42.696;23.218;2023-03-14T10:14:28;94228.95;;;12.19;38.52
43553;BME280;29153;42.696;23.218;2023-03-14T10:16:47;94228.95;;;12.19;38.52
43553;BME280;29153;42.696;23.218;2023-03-14T10:19:16;94218.30;;;12.06;40.09
43553;BME280;29153;42.696;23.218;2023-03-14T10:21:43;94223.03;;;11.90;36.26
43553;BME280;29153;42.696;23.218;2023-03-14T10:26:53;94201.23;;;12.58;40.02
43553;BME280;29153;42.696;23.218;2023-03-14T10:29:20;94189.84;;;13.12;37.48
43553;BME280;29153;42.696;23.218;2023-03-14T10:34:25;94177.55;;;13.27;35.76
43553;BME280;29153;42.696;23.218;2023-03-14T10:36:57;94177.55;;;13.27;35.76
43553;BME280;29153;42.696;23.218;2023-03-14T10:39:37;94155.56;;;13.35;36.13
43553;BME280;29153;42.696;23.218;2023-03-14T10:44:43;94157.04;;;13.41;34.21
43553;BME280;29153;42.696;23.218;2023-03-14T10:47:20;94147.56;;;13.24;35.17
43553;BME280;29153;42.696;23.218;2023-03-14T10:49:48;94148.56;;;13.14;34.54
43553;BME280;29153;42.696;23.218;2023-03-14T10:52:27;94136.58;;;13.01;32.88
43553;BME280;29153;42.696;23.218;2023-03-14T10:55:18;94138.01;;;13.23;33.19
43553;BME280;29153;42.696;23.218;2023-03-14T10:57:26;94134.17;;;13.02;33.04
43553;BME280;29153;42.696;23.218;2023-03-14T10:59:55;94128.88;;;13.27;32.89
43553;BME280;29153;42.696;23.218;2023-03-14T11:02:49;94128.88;;;13.27;32.89
43553;BME280;29153;42.696;23.218;2023-03-14T11:05:33;94121.34;;;13.31;34.06
43553;BME280;29153;42.696;23.218;2023-03-14T11:08:04;94112.19;;;13.12;33.75
43553;BME280;29153;42.696;23.218;2023-03-14T11:10:36;94105.62;;;13.21;33.17
43553;BME280;29153;42.696;23.218;2023-03-14T11:24:31;94071.89;;;13.75;32.50
43553;BME280;29153;42.696;23.218;2023-03-14T11:27:06;94063.02;;;13.68;32.46
43553;BME280;29153;42.696;23.218;2023-03-14T11:32:21;94042.98;;;13.82;34.21
43553;BME280;29153;42.696;23.218;2023-03-14T11:34:52;94039.70;;;13.74;32.80
43553;BME280;29153;42.696;23.218;2023-03-14T11:40:23;94029.77;;;13.99;33.56
43553;BME280;29153;42.696;23.218;2023-03-14T11:42:59;94021.48;;;13.78;33.85
43553;BME280;29153;42.696;23.218;2023-03-14T11:45:39;94014.88;;;13.87;34.59
43553;BME280;29153;42.696;23.218;2023-03-14T11:48:33;94010.42;;;13.85;34.49
43553;BME280;29153;42.696;23.218;2023-03-14T11:50:58;94007.05;;;13.82;37.22
43553;BME280;29153;42.696;23.218;2023-03-14T11:53:43;94003.39;;;13.89;34.95
43553;BME280;29153;42.696;23.218;2023-03-14T11:56:14;93999.28;;;13.83;35.52
43553;BME280;29153;42.696;23.218;2023-03-14T11:58:42;93997.81;;;13.88;36.17
43553;BME280;29153;42.696;23.218;2023-03-14T12:01:11;93983.17;;;13.88;36.44
43553;BME280;29153;42.696;23.218;2023-03-14T12:06:24;93970.90;;;13.89;35.58
43553;BME280;29153;42.696;23.218;2023-03-14T12:08:57;93970.90;;;13.89;35.58
43553;BME280;29153;42.696;23.218;2023-03-14T12:11:55;93958.48;;;14.04;38.31
43553;BME280;29153;42.696;23.218;2023-03-14T12:14:24;93956.78;;;14.08;36.21
43553;BME280;29153;42.696;23.218;2023-03-14T12:17:03;93948.22;;;14.20;35.84
43553;BME280;29153;42.696;23.218;2023-03-14T12:19:28;93948.22;;;14.20;35.84
43553;BME280;29153;42.696;23.218;2023-03-14T12:21:59;93944.12;;;14.42;35.46
43553;BME280;29153;42.696;23.218;2023-03-14T12:24:29;93936.41;;;14.32;35.45
43553;BME280;29153;42.696;23.218;2023-03-14T12:27:02;93931.28;;;14.16;36.20
43553;BME280;29153;42.696;23.218;2023-03-14T12:29:31;93933.99;;;14.33;36.35
43553;BME280;29153;42.696;23.218;2023-03-14T12:32:07;93923.07;;;14.24;34.81
43553;BME280;29153;42.696;23.218;2023-03-14T12:34:40;93918.30;;;14.32;35.55
43553;BME280;29153;42.696;23.218;2023-03-14T12:37:37;93915.34;;;14.33;37.30
43553;BME280;29153;42.696;23.218;2023-03-14T12:40:15;93915.34;;;14.33;35.02
43553;BME280;29153;42.696;23.218;2023-03-14T12:42:51;93907.37;;;14.50;35.48
43553;BME280;29153;42.696;23.218;2023-03-14T12:48:03;93892.90;;;14.80;35.14
43553;BME280;29153;42.696;23.218;2023-03-14T12:50:44;93868.36;;;14.63;35.68
43553;BME280;29153;42.696;23.218;2023-03-14T12:56:32;93865.75;;;14.61;34.84
43553;BME280;29153;42.696;23.218;2023-03-14T12:59:02;93865.75;;;14.61;34.84
43553;BME280;29153;42.696;23.218;2023-03-14T13:01:29;93857.22;;;14.44;34.30
43553;BME280;29153;42.696;23.218;2023-03-14T13:03:58;93859.08;;;14.78;34.42
43553;BME280;29153;42.696;23.218;2023-03-14T13:06:58;93853.76;;;14.69;34.17
43553;BME280;29153;42.696;23.218;2023-03-14T13:15:01;93844.92;;;15.03;34.04
43553;BME280;29153;42.696;23.218;2023-03-14T13:17:34;93832.23;;;15.00;34.13
43553;BME280;29153;42.696;23.218;2023-03-14T13:20:12;93829.59;;;15.15;35.43
43553;BME280;29153;42.696;23.218;2023-03-14T13:22:46;93824.88;;;15.20;34.84
43553;BME280;29153;42.696;23.218;2023-03-14T13:25:12;93821.42;;;15.20;34.08
43553;BME280;29153;42.696;23.218;2023-03-14T13:27:41;93815.77;;;15.21;33.07
43553;BME280;29153;42.696;23.218;2023-03-14T13:30:23;93800.72;;;15.17;33.00
43553;BME280;29153;42.696;23.218;2023-03-14T13:32:52;93803.94;;;14.93;32.81
43553;BME280;29153;42.696;23.218;2023-03-14T13:35:24;93799.34;;;15.02;34.03
43553;BME280;29153;42.696;23.218;2023-03-14T13:38:03;93790.73;;;15.20;33.94
43553;BME280;29153;42.696;23.218;2023-03-14T13:40:31;93790.81;;;14.94;32.72
43553;BME280;29153;42.696;23.218;2023-03-14T13:43:49;93776.50;;;15.07;34.45
43553;BME280;29153;42.696;23.218;2023-03-14T13:45:44;93770.66;;;15.22;33.03
43553;BME280;29153;42.696;23.218;2023-03-14T13:48:13;93770.55;;;15.25;33.44
43553;BME280;29153;42.696;23.218;2023-03-14T13:50:49;93757.22;;;15.25;33.07
43553;BME280;29153;42.696;23.218;2023-03-14T13:53:15;93756.63;;;15.34;33.40
43553;BME280;29153;42.696;23.218;2023-03-14T13:55:42;93753.72;;;15.18;33.06
43553;BME280;29153;42.696;23.218;2023-03-14T13:58:23;93741.27;;;15.31;34.55